sensor_id;sensor_type;location;lat;lon;timestamp;pressure;altitude;pressure_sealevel;temperature;humidity
79617;BME280;69097;52.132;5.422;2023-06-10T00:01:00;101612.34;;;20.52;54.76
79617;BME280;69097;52.132;5.422;2023-06-10T00:03:30;101612.84;;;20.50;54.08
79617;BME280;69097;52.132;5.422;2023-06-10T00:06:01;101606.66;;;20.52;53.86
79617;BME280;69097;52.132;5.422;2023-06-10T00:08:32;101613.63;;;20.51;53.45
79617;BME280;69097;52.132;5.422;2023-06-10T00:10:59;101619.03;;;20.49;53.73
79617;BME280;69097;52.132;5.422;2023-06-10T00:13:30;101617.91;;;20.46;53.58
79617;BME280;69097;52.132;5.422;2023-06-10T00:16:06;101621.75;;;20.43;53.30
79617;BME280;69097;52.132;5.422;2023-06-10T00:18:37;101619.53;;;20.38;54.00
79617;BME280;69097;52.132;5.422;2023-06-10T00:21:07;101625.41;;;20.35;53.91
79617;BME280;69097;52.132;5.422;2023-06-10T00:23:36;101616.56;;;20.33;53.20
79617;BME280;69097;52.132;5.422;2023-06-10T00:26:14;101622.47;;;20.29;53.48
79617;BME280;69097;52.132;5.422;2023-06-10T00:28:43;101624.50;;;20.29;52.96
79617;BME280;69097;52.132;5.422;2023-06-10T00:31:12;101620.06;;;20.28;52.88
79617;BME280;69097;52.132;5.422;2023-06-10T00:33:41;101616.13;;;20.25;52.33
79617;BME280;69097;52.132;5.422;2023-06-10T00:36:12;101625.16;;;20.24;51.81
79617;BME280;69097;52.132;5.422;2023-06-10T00:38:39;101623.56;;;20.23;51.35
79617;BME280;69097;52.132;5.422;2023-06-10T00:41:13;101624.38;;;20.23;52.18
79617;BME280;69097;52.132;5.422;2023-06-10T00:43:42;101622.00;;;20.22;53.03
79617;BME280;69097;52.132;5.422;2023-06-10T00:46:11;101628.66;;;20.19;52.25
79617;BME280;69097;52.132;5.422;2023-06-10T00:48:44;101626.44;;;20.14;52.75
79617;BME280;69097;52.132;5.422;2023-06-10T00:51:22;101636.25;;;20.13;52.27
79617;BME280;69097;52.132;5.422;2023-06-10T00:53:50;101627.69;;;20.13;51.96
79617;BME280;69097;52.132;5.422;2023-06-10T00:56:17;101628.84;;;20.06;52.41
79617;BME280;69097;52.132;5.422;2023-06-10T00:58:49;101631.56;;;20.01;51.99
79617;BME280;69097;52.132;5.422;2023-06-10T01:01:20;101621.59;;;19.96;52.30
79617;BME280;69097;52.132;5.422;2023-06-10T01:03:50;101623.94;;;19.98;51.84
79617;BME280;69097;52.132;5.422;2023-06-10T01:06:47;101623.94;;;19.98;52.27
79617;BME280;69097;52.132;5.422;2023-06-10T01:09:42;101622.06;;;19.95;51.73
79617;BME280;69097;52.132;5.422;2023-06-10T01:12:47;101625.72;;;19.95;50.98
79617;BME280;69097;52.132;5.422;2023-06-10T01:15:18;101622.06;;;19.95;51.78
79617;BME280;69097;52.132;5.422;2023-06-10T01:18:13;101628.56;;;19.95;51.15
79617;BME280;69097;52.132;5.422;2023-06-10T01:20:49;101628.72;;;19.92;51.22
79617;BME280;69097;52.132;5.422;2023-06-10T01:23:20;101634.09;;;19.90;51.18
79617;BME280;69097;52.132;5.422;2023-06-10T01:26:09;101632.72;;;19.85;51.56
79617;BME280;69097;52.132;5.422;2023-06-10T01:32:21;101632.88;;;19.82;52.05
79617;BME280;69097;52.132;5.422;2023-06-10T01:34:52;101639.53;;;19.79;52.03
79617;BME280;69097;52.132;5.422;2023-06-10T01:37:24;101636.03;;;19.75;52.38
79617;BME280;69097;52.132;5.422;2023-06-10T01:39:57;101634.47;;;19.74;52.14
79617;BME280;69097;52.132;5.422;2023-06-10T01:42:29;101636.22;;;19.71;52.22
79617;BME280;69097;52.132;5.422;2023-06-10T01:45:01;101628.16;;;19.70;52.04
79617;BME280;69097;52.132;5.422;2023-06-10T01:47:32;101628.78;;;19.65;53.27
79617;BME280;69097;52.132;5.422;2023-06-10T01:50:04;101636.22;;;19.62;52.93
79617;BME280;69097;52.132;5.422;2023-06-10T01:52:31;101636.56;;;19.55;53.00
79617;BME280;69097;52.132;5.422;2023-06-10T01:54:59;101628.94;;;19.52;53.49
79617;BME280;69097;52.132;5.422;2023-06-10T01:57:31;101626.28;;;19.48;53.50
79617;BME280;69097;52.132;5.422;2023-06-10T02:00:02;101632.44;;;19.47;52.87
79617;BME280;69097;52.132;5.422;2023-06-10T02:02:29;101639.41;;;19.46;52.97
79617;BME280;69097;52.132;5.422;2023-06-10T02:05:05;101636.41;;;19.40;54.09
79617;BME280;69097;52.132;5.422;2023-06-10T02:07:39;101637.34;;;19.37;53.73
79617;BME280;69097;52.132;5.422;2023-06-10T02:10:08;101634.19;;;19.35;54.65
79617;BME280;69097;52.132;5.422;2023-06-10T02:12:36;101639.56;;;19.33;54.52
79617;BME280;69097;52.132;5.422;2023-06-10T02:15:03;101639.38;;;19.28;55.81
79617;BME280;69097;52.132;5.422;2023-06-10T02:17:35;101640.78;;;19.23;54.88
79617;BME280;69097;52.132;5.422;2023-06-10T02:20:07;101639.84;;;19.17;55.70
79617;BME280;69097;52.132;5.422;2023-06-10T02:22:40;101648.88;;;19.16;55.80
79617;BME280;69097;52.132;5.422;2023-06-10T02:25:09;101641.44;;;19.09;55.63
79617;BME280;69097;52.132;5.422;2023-06-10T02:27:38;101650.44;;;19.08;55.32
79617;BME280;69097;52.132;5.422;2023-06-10T02:30:07;101647.75;;;19.04;55.38
79617;BME280;69097;52.132;5.422;2023-06-10T02:32:37;101655.97;;;19.02;56.36
79617;BME280;69097;52.132;5.422;2023-06-10T02:35:10;101650.44;;;18.99;57.23
79617;BME280;69097;52.132;5.422;2023-06-10T02:37:44;101654.69;;;18.94;57.44
79617;BME280;69097;52.132;5.422;2023-06-10T02:40:13;101661.31;;;18.91;57.08
79617;BME280;69097;52.132;5.422;2023-06-10T02:42:41;101650.56;;;18.86;57.37
79617;BME280;69097;52.132;5.422;2023-06-10T02:45:09;101657.50;;;18.85;57.15
79617;BME280;69097;52.132;5.422;2023-06-10T02:47:38;101651.16;;;18.81;57.51
79617;BME280;69097;52.132;5.422;2023-06-10T02:50:15;101652.78;;;18.82;57.13
79617;BME280;69097;52.132;5.422;2023-06-10T02:52:45;101656.84;;;18.81;57.32
79617;BME280;69097;52.132;5.422;2023-06-10T02:55:12;101657.03;;;18.78;57.15
79617;BME280;69097;52.132;5.422;2023-06-10T02:57:48;101658.75;;;18.75;57.20
79617;BME280;69097;52.132;5.422;2023-06-10T03:00:23;101651.97;;;18.73;57.41
79617;BME280;69097;52.132;5.422;2023-06-10T03:03:03;101657.00;;;18.69;57.63
79617;BME280;69097;52.132;5.422;2023-06-10T03:05:34;101661.88;;;18.68;58.10
79617;BME280;69097;52.132;5.422;2023-06-10T03:08:02;101654.16;;;18.69;57.77
79617;BME280;69097;52.132;5.422;2023-06-10T03:10:29;101663.16;;;18.67;57.85
79617;BME280;69097;52.132;5.422;2023-06-10T03:12:59;101653.66;;;18.61;58.35
79617;BME280;69097;52.132;5.422;2023-06-10T03:15:36;101662.66;;;18.60;58.48
79617;BME280;69097;52.132;5.422;2023-06-10T03:18:07;101661.56;;;18.57;58.55
79617;BME280;69097;52.132;5.422;2023-06-10T03:20:36;101655.22;;;18.53;59.20
79617;BME280;69097;52.132;5.422;2023-06-10T03:23:07;101661.38;;;18.52;59.02
79617;BME280;69097;52.132;5.422;2023-06-10T03:25:38;101661.50;;;18.48;58.46
79617;BME280;69097;52.132;5.422;2023-06-10T03:28:11;101666.09;;;18.46;58.79
79617;BME280;69097;52.132;5.422;2023-06-10T03:30:44;101657.72;;;18.42;58.79
79617;BME280;69097;52.132;5.422;2023-06-10T03:33:11;101658.94;;;18.41;59.22
79617;BME280;69097;52.132;5.422;2023-06-10T03:35:41;101669.06;;;18.42;59.03
79617;BME280;69097;52.132;5.422;2023-06-10T03:38:10;101659.28;;;18.43;58.06
79617;BME280;69097;52.132;5.422;2023-06-10T03:40:47;101660.84;;;18.44;59.10
79617;BME280;69097;52.132;5.422;2023-06-10T03:43:19;101670.66;;;18.43;58.52
79617;BME280;69097;52.132;5.422;2023-06-10T03:45:48;101668.13;;;18.45;59.01
79617;BME280;69097;52.132;5.422;2023-06-10T03:48:19;101670.66;;;18.43;58.82
79617;BME280;69097;52.132;5.422;2023-06-10T03:50:46;101674.88;;;18.38;59.29
79617;BME280;69097;52.132;5.422;2023-06-10T03:53:23;101674.06;;;18.38;59.49
79617;BME280;69097;52.132;5.422;2023-06-10T03:55:49;101676.56;;;18.36;60.22
79617;BME280;69097;52.132;5.422;2023-06-10T03:58:18;101675.34;;;18.37;59.88
79617;BME280;69097;52.132;5.422;2023-06-10T04:00:50;101676.56;;;18.36;59.91
79617;BME280;69097;52.132;5.422;2023-06-10T04:03:17;101675.34;;;18.37;59.81
79617;BME280;69097;52.132;5.422;2023-06-10T04:05:44;101678.19;;;18.37;60.14
79617;BME280;69097;52.132;5.422;2023-06-10T04:08:14;101677.84;;;18.35;60.08
79617;BME280;69097;52.132;5.422;2023-06-10T04:10:47;101677.53;;;18.33;60.46
79617;BME280;69097;52.132;5.422;2023-06-10T04:13:19;101675.94;;;18.32;60.22
79617;BME280;69097;52.132;5.422;2023-06-10T04:16:08;101681.63;;;18.32;60.34
79617;BME280;69097;52.132;5.422;2023-06-10T04:18:40;101686.03;;;18.33;60.01
79617;BME280;69097;52.132;5.422;2023-06-10T04:21:11;101681.63;;;18.32;60.94
79617;BME280;69097;52.132;5.422;2023-06-10T04:23:42;101685.25;;;18.32;60.99
79617;BME280;69097;52.132;5.422;2023-06-10T04:26:11;101688.09;;;18.32;62.37
79617;BME280;69097;52.132;5.422;2023-06-10T04:28:39;101684.75;;;18.25;61.75
79617;BME280;69097;52.132;5.422;2023-06-10T04:31:09;101697.22;;;18.27;61.12
79617;BME280;69097;52.132;5.422;2023-06-10T04:33:40;101695.16;;;18.28;62.20
79617;BME280;69097;52.132;5.422;2023-06-10T04:36:09;101693.13;;;18.28;61.57
79617;BME280;69097;52.132;5.422;2023-06-10T04:38:38;101695.50;;;18.30;61.20
79617;BME280;69097;52.132;5.422;2023-06-10T04:41:07;101695.84;;;18.32;62.30
79617;BME280;69097;52.132;5.422;2023-06-10T04:43:45;101698.34;;;18.30;61.68
79617;BME280;69097;52.132;5.422;2023-06-10T04:46:20;101693.91;;;18.29;61.63
79617;BME280;69097;52.132;5.422;2023-06-10T04:48:49;101698.19;;;18.33;61.83
79617;BME280;69097;52.132;5.422;2023-06-10T04:51:18;101701.69;;;18.37;62.02
79617;BME280;69097;52.132;5.422;2023-06-10T04:53:46;101706.13;;;18.38;62.32
79617;BME280;69097;52.132;5.422;2023-06-10T04:56:12;101702.84;;;18.40;61.79
79617;BME280;69097;52.132;5.422;2023-06-10T04:58:41;101711.22;;;18.44;62.54
79617;BME280;69097;52.132;5.422;2023-06-10T05:01:11;101706.31;;;18.44;62.68
79617;BME280;69097;52.132;5.422;2023-06-10T05:03:42;101709.16;;;18.44;61.57
79617;BME280;69097;52.132;5.422;2023-06-10T05:06:16;101711.41;;;18.49;61.50
79617;BME280;69097;52.132;5.422;2023-06-10T05:08:47;101714.56;;;18.51;61.88
79617;BME280;69097;52.132;5.422;2023-06-10T05:11:13;101706.69;;;18.55;61.56
79617;BME280;69097;52.132;5.422;2023-06-10T05:13:42;101714.75;;;18.57;61.04
79617;BME280;69097;52.132;5.422;2023-06-10T05:16:11;101699.25;;;18.58;62.36
79617;BME280;69097;52.132;5.422;2023-06-10T05:18:39;101711.44;;;18.58;62.43
79617;BME280;69097;52.132;5.422;2023-06-10T05:21:06;101707.34;;;18.59;62.58
79617;BME280;69097;52.132;5.422;2023-06-10T05:23:36;101704.81;;;18.61;62.48
79617;BME280;69097;52.132;5.422;2023-06-10T05:26:07;101710.81;;;18.63;62.54
79617;BME280;69097;52.132;5.422;2023-06-10T05:28:39;101709.59;;;18.64;62.23
79617;BME280;69097;52.132;5.422;2023-06-10T05:31:06;101708.97;;;18.69;62.12
79617;BME280;69097;52.132;5.422;2023-06-10T05:33:36;101708.50;;;18.71;62.45
79617;BME280;69097;52.132;5.422;2023-06-10T05:36:06;101704.38;;;18.72;63.28
79617;BME280;69097;52.132;5.422;2023-06-10T05:38:33;101712.44;;;18.73;62.60
79617;BME280;69097;52.132;5.422;2023-06-10T05:41:13;101718.78;;;18.77;63.63
79617;BME280;69097;52.132;5.422;2023-06-10T05:43:49;101721.47;;;18.81;63.16
79617;BME280;69097;52.132;5.422;2023-06-10T05:46:22;101712.94;;;18.81;61.90
79617;BME280;69097;52.132;5.422;2023-06-10T05:48:53;101719.13;;;18.88;62.64
79617;BME280;69097;52.132;5.422;2023-06-10T05:51:24;101719.78;;;18.92;61.42
79617;BME280;69097;52.132;5.422;2023-06-10T05:53:54;101721.19;;;18.97;62.92
79617;BME280;69097;52.132;5.422;2023-06-10T05:56:21;101726.75;;;19.00;61.95
79617;BME280;69097;52.132;5.422;2023-06-10T05:58:55;101724.06;;;19.06;61.95
79617;BME280;69097;52.132;5.422;2023-06-10T06:01:54;101721.41;;;19.11;61.74
79617;BME280;69097;52.132;5.422;2023-06-10T06:04:30;101709.09;;;19.14;62.61
79617;BME280;69097;52.132;5.422;2023-06-10T06:07:06;101716.19;;;19.19;61.89
79617;BME280;69097;52.132;5.422;2023-06-10T06:09:34;101711.91;;;19.23;61.44
79617;BME280;69097;52.132;5.422;2023-06-10T06:12:05;101715.41;;;19.27;60.37
79617;BME280;69097;52.132;5.422;2023-06-10T06:14:40;101717.03;;;19.37;61.05
79617;BME280;69097;52.132;5.422;2023-06-10T06:17:10;101712.75;;;19.42;60.50
79617;BME280;69097;52.132;5.422;2023-06-10T06:19:38;101717.81;;;19.47;60.39
79617;BME280;69097;52.132;5.422;2023-06-10T06:22:08;101715.13;;;19.52;60.19
79617;BME280;69097;52.132;5.422;2023-06-10T06:24:37;101714.81;;;19.59;59.99
79617;BME280;69097;52.132;5.422;2023-06-10T06:27:05;101712.00;;;19.69;59.63
79617;BME280;69097;52.132;5.422;2023-06-10T06:29:32;101706.75;;;19.76;59.77
79617;BME280;69097;52.132;5.422;2023-06-10T06:32:01;101715.28;;;19.85;59.05
79617;BME280;69097;52.132;5.422;2023-06-10T06:34:28;101709.88;;;19.96;58.58
79617;BME280;69097;52.132;5.422;2023-06-10T06:37:10;101695.94;;;20.07;57.24
79617;BME280;69097;52.132;5.422;2023-06-10T06:39:43;101708.13;;;20.17;58.85
79617;BME280;69097;52.132;5.422;2023-06-10T06:42:18;101713.34;;;20.27;57.94
79617;BME280;69097;52.132;5.422;2023-06-10T06:44:54;101709.03;;;20.41;57.47
79617;BME280;69097;52.132;5.422;2023-06-10T06:47:32;101714.00;;;20.55;57.23
79617;BME280;69097;52.132;5.422;2023-06-10T06:50:03;101715.09;;;20.66;56.80
79617;BME280;69097;52.132;5.422;2023-06-10T06:52:33;101708.84;;;20.77;56.47
79617;BME280;69097;52.132;5.422;2023-06-10T06:55:00;101715.81;;;20.85;55.42
79617;BME280;69097;52.132;5.422;2023-06-10T06:57:34;101711.91;;;20.97;55.40
79617;BME280;69097;52.132;5.422;2023-06-10T07:00:02;101719.78;;;21.11;55.47
79617;BME280;69097;52.132;5.422;2023-06-10T07:02:28;101709.88;;;21.21;54.93
79617;BME280;69097;52.132;5.422;2023-06-10T07:04:57;101714.25;;;21.31;53.68
79617;BME280;69097;52.132;5.422;2023-06-10T07:07:25;101720.97;;;21.43;54.02
79617;BME280;69097;52.132;5.422;2023-06-10T07:09:52;101712.16;;;21.55;54.77
79617;BME280;69097;52.132;5.422;2023-06-10T07:12:21;101719.97;;;21.69;54.03
79617;BME280;69097;52.132;5.422;2023-06-10T07:15:04;101720.22;;;21.80;52.77
79617;BME280;69097;52.132;5.422;2023-06-10T07:17:35;101720.22;;;21.95;53.89
79617;BME280;69097;52.132;5.422;2023-06-10T07:20:12;101725.19;;;22.09;53.74
79617;BME280;69097;52.132;5.422;2023-06-10T07:22:42;101723.59;;;22.23;53.64
79617;BME280;69097;52.132;5.422;2023-06-10T07:25:15;101715.22;;;22.34;52.57
79617;BME280;69097;52.132;5.422;2023-06-10T07:27:47;101716.78;;;22.49;51.91
79617;BME280;69097;52.132;5.422;2023-06-10T07:30:18;101718.38;;;22.65;52.28
79617;BME280;69097;52.132;5.422;2023-06-10T07:32:45;101715.97;;;22.78;51.48
79617;BME280;69097;52.132;5.422;2023-06-10T07:35:12;101712.19;;;22.86;50.38
79617;BME280;69097;52.132;5.422;2023-06-10T07:37:38;101706.66;;;22.97;51.07
79617;BME280;69097;52.132;5.422;2023-06-10T07:40:05;101717.44;;;23.08;50.01
79617;BME280;69097;52.132;5.422;2023-06-10T07:42:34;101711.91;;;23.19;50.96
79617;BME280;69097;52.132;5.422;2023-06-10T07:45:03;101719.38;;;23.31;50.22
79617;BME280;69097;52.132;5.422;2023-06-10T07:47:30;101716.13;;;23.44;50.24
79617;BME280;69097;52.132;5.422;2023-06-10T07:49:57;101726.38;;;23.50;49.39
79617;BME280;69097;52.132;5.422;2023-06-10T07:52:29;101718.69;;;23.62;48.18
79617;BME280;69097;52.132;5.422;2023-06-10T07:55:00;101725.84;;;23.72;49.06
79617;BME280;69097;52.132;5.422;2023-06-10T07:57:40;101727.50;;;23.78;48.10
79617;BME280;69097;52.132;5.422;2023-06-10T08:00:23;101725.25;;;23.88;48.31
79617;BME280;69097;52.132;5.422;2023-06-10T08:02:50;101720.47;;;23.99;47.87
79617;BME280;69097;52.132;5.422;2023-06-10T08:05:18;101725.53;;;24.10;48.23
79617;BME280;69097;52.132;5.422;2023-06-10T08:07:51;101731.88;;;24.19;47.19
79617;BME280;69097;52.132;5.422;2023-06-10T08:10:29;101722.38;;;24.33;47.75
79617;BME280;69097;52.132;5.422;2023-06-10T08:13:01;101726.91;;;24.46;46.91
79617;BME280;69097;52.132;5.422;2023-06-10T08:15:30;101721.00;;;24.60;47.20
79617;BME280;69097;52.132;5.422;2023-06-10T08:17:56;101721.13;;;24.71;46.80
79617;BME280;69097;52.132;5.422;2023-06-10T08:20:23;101720.88;;;24.75;46.16
79617;BME280;69097;52.132;5.422;2023-06-10T08:22:49;101724.13;;;24.88;47.51
79617;BME280;69097;52.132;5.422;2023-06-10T08:25:19;101714.00;;;24.98;47.18
79617;BME280;69097;52.132;5.422;2023-06-10T08:27:51;101725.28;;;25.07;46.56
79617;BME280;69097;52.132;5.422;2023-06-10T08:30:27;101718.81;;;25.17;46.02
79617;BME280;69097;52.132;5.422;2023-06-10T08:33:03;101722.25;;;25.27;44.86
79617;BME280;69097;52.132;5.422;2023-06-10T08:35:30;101722.38;;;25.43;46.51
79617;BME280;69097;52.132;5.422;2023-06-10T08:37:56;101729.22;;;25.57;44.08
79617;BME280;69097;52.132;5.422;2023-06-10T08:40:22;101716.69;;;25.66;44.86
79617;BME280;69097;52.132;5.422;2023-06-10T08:43:08;101723.03;;;25.86;45.73
79617;BME280;69097;52.132;5.422;2023-06-10T08:45:37;101728.09;;;26.02;44.51
79617;BME280;69097;52.132;5.422;2023-06-10T08:48:10;101718.16;;;26.14;43.88
79617;BME280;69097;52.132;5.422;2023-06-10T08:50:40;101723.66;;;26.29;43.98
79617;BME280;69097;52.132;5.422;2023-06-10T08:53:11;101727.84;;;26.33;42.17
79617;BME280;69097;52.132;5.422;2023-06-10T08:55:42;101719.50;;;26.41;41.79
79617;BME280;69097;52.132;5.422;2023-06-10T08:58:09;101717.66;;;26.54;42.29
79617;BME280;69097;52.132;5.422;2023-06-10T09:00:38;101726.03;;;26.69;43.02
79617;BME280;69097;52.132;5.422;2023-06-10T09:03:05;101728.91;;;26.86;41.41
79617;BME280;69097;52.132;5.422;2023-06-10T09:05:37;101726.28;;;26.99;41.32
79617;BME280;69097;52.132;5.422;2023-06-10T09:08:08;101723.88;;;27.14;40.97
79617;BME280;69097;52.132;5.422;2023-06-10T09:10:40;101728.28;;;27.26;40.89
79617;BME280;69097;52.132;5.422;2023-06-10T09:13:10;101718.84;;;27.36;39.21
79617;BME280;69097;52.132;5.422;2023-06-10T09:15:40;101719.34;;;27.46;39.30
79617;BME280;69097;52.132;5.422;2023-06-10T09:18:12;101714.03;;;27.61;39.62
79617;BME280;69097;52.132;5.422;2023-06-10T09:20:53;101714.53;;;27.65;39.63
79617;BME280;69097;52.132;5.422;2023-06-10T09:23:24;101716.13;;;27.66;40.33
79617;BME280;69097;52.132;5.422;2023-06-10T09:25:57;101718.09;;;27.88;39.82
79617;BME280;69097;52.132;5.422;2023-06-10T09:28:28;101719.63;;;28.00;39.10
79617;BME280;69097;52.132;5.422;2023-06-10T09:31:04;101721.56;;;28.21;38.30
79617;BME280;69097;52.132;5.422;2023-06-10T09:33:39;101716.44;;;28.38;39.09
79617;BME280;69097;52.132;5.422;2023-06-10T09:36:23;101717.47;;;28.41;38.82
79617;BME280;69097;52.132;5.422;2023-06-10T09:38:56;101708.22;;;28.53;36.11
79617;BME280;69097;52.132;5.422;2023-06-10T09:41:33;101719.19;;;28.60;35.67
79617;BME280;69097;52.132;5.422;2023-06-10T09:44:11;101715.03;;;28.80;36.43
79617;BME280;69097;52.132;5.422;2023-06-10T09:46:45;101709.22;;;29.10;36.94
79617;BME280;69097;52.132;5.422;2023-06-10T09:49:15;101702.34;;;29.37;35.57
79617;BME280;69097;52.132;5.422;2023-06-10T09:51:50;101710.34;;;29.49;35.46
79617;BME280;69097;52.132;5.422;2023-06-10T09:54:46;101699.31;;;29.48;34.96
79617;BME280;69097;52.132;5.422;2023-06-10T09:57:18;101712.06;;;29.39;33.83
79617;BME280;69097;52.132;5.422;2023-06-10T09:59:45;101698.03;;;29.25;33.14
79617;BME280;69097;52.132;5.422;2023-06-10T10:02:17;101700.78;;;29.36;35.37
79617;BME280;69097;52.132;5.422;2023-06-10T10:04:46;101708.25;;;29.50;34.65
79617;BME280;69097;52.132;5.422;2023-06-10T10:07:13;101707.28;;;29.60;32.72
79617;BME280;69097;52.132;5.422;2023-06-10T10:09:47;101700.13;;;29.67;32.08
79617;BME280;69097;52.132;5.422;2023-06-10T10:12:17;101702.88;;;29.78;33.05
79617;BME280;69097;52.132;5.422;2023-06-10T10:14:47;101700.06;;;29.91;34.03
79617;BME280;69097;52.132;5.422;2023-06-10T10:17:18;101697.41;;;29.93;32.80
79617;BME280;69097;52.132;5.422;2023-06-10T10:19:53;101697.78;;;30.02;32.13
79617;BME280;69097;52.132;5.422;2023-06-10T10:22:44;101697.75;;;30.21;32.88
79617;BME280;69097;52.132;5.422;2023-06-10T10:25:23;101697.16;;;30.41;30.99
79617;BME280;69097;52.132;5.422;2023-06-10T10:27:55;101687.44;;;30.26;30.68
79617;BME280;69097;52.132;5.422;2023-06-10T10:30:24;101692.91;;;30.29;31.36
79617;BME280;69097;52.132;5.422;2023-06-10T10:33:04;101688.03;;;30.37;29.29
79617;BME280;69097;52.132;5.422;2023-06-10T10:35:38;101696.97;;;30.39;29.58
79617;BME280;69097;52.132;5.422;2023-06-10T10:38:18;101683.63;;;30.49;29.44
79617;BME280;69097;52.132;5.422;2023-06-10T10:40:52;101691.22;;;30.65;29.77
79617;BME280;69097;52.132;5.422;2023-06-10T10:43:28;101688.56;;;30.67;28.92
79617;BME280;69097;52.132;5.422;2023-06-10T10:45:58;101683.22;;;30.71;29.41
79617;BME280;69097;52.132;5.422;2023-06-10T10:48:52;101686.31;;;30.73;27.83
79617;BME280;69097;52.132;5.422;2023-06-10T10:51:33;101676.13;;;30.85;29.71
79617;BME280;69097;52.132;5.422;2023-06-10T10:54:13;101689.97;;;31.05;28.86
79617;BME280;69097;52.132;5.422;2023-06-10T10:57:11;101675.03;;;31.14;28.69
79617;BME280;69097;52.132;5.422;2023-06-10T10:59:45;101673.66;;;31.15;26.71
79617;BME280;69097;52.132;5.422;2023-06-10T11:05:02;101671.31;;;31.27;25.74
79617;BME280;69097;52.132;5.422;2023-06-10T11:07:30;101677.56;;;31.31;27.35
79617;BME280;69097;52.132;5.422;2023-06-10T11:10:02;101673.88;;;31.30;27.20
79617;BME280;69097;52.132;5.422;2023-06-10T11:15:18;101673.78;;;31.49;27.80
79617;BME280;69097;52.132;5.422;2023-06-10T11:18:07;101664.88;;;31.47;27.21
79617;BME280;69097;52.132;5.422;2023-06-10T11:34:01;101652.72;;;31.49;26.46
79617;BME280;69097;52.132;5.422;2023-06-10T11:36:31;101653.13;;;31.53;26.55
79617;BME280;69097;52.132;5.422;2023-06-10T11:39:04;101645.09;;;31.59;26.57
79617;BME280;69097;52.132;5.422;2023-06-10T11:41:32;101646.94;;;31.69;27.07
79617;BME280;69097;52.132;5.422;2023-06-10T11:44:04;101643.78;;;31.80;27.94
79617;BME280;69097;52.132;5.422;2023-06-10T11:46:49;101642.56;;;31.89;25.23
79617;BME280;69097;52.132;5.422;2023-06-10T11:49:32;101643.88;;;31.88;26.85
79617;BME280;69097;52.132;5.422;2023-06-10T11:51:59;101642.44;;;31.81;25.27
79617;BME280;69097;52.132;5.422;2023-06-10T11:54:25;101635.41;;;31.90;25.99
79617;BME280;69097;52.132;5.422;2023-06-10T11:56:57;101625.72;;;31.87;26.58
79617;BME280;69097;52.132;5.422;2023-06-10T11:59:27;101633.84;;;31.89;27.48
79617;BME280;69097;52.132;5.422;2023-06-10T12:01:56;101630.81;;;31.94;26.22
79617;BME280;69097;52.132;5.422;2023-06-10T12:04:26;101635.97;;;31.88;25.47
79617;BME280;69097;52.132;5.422;2023-06-10T12:06:56;101632.72;;;31.92;27.36
79617;BME280;69097;52.132;5.422;2023-06-10T12:09:31;101636.34;;;32.05;26.93
79617;BME280;69097;52.132;5.422;2023-06-10T12:12:04;101629.97;;;32.27;26.74
79617;BME280;69097;52.132;5.422;2023-06-10T12:15:05;101615.50;;;32.35;26.36
79617;BME280;69097;52.132;5.422;2023-06-10T12:20:32;101618.34;;;32.07;25.94
79617;BME280;69097;52.132;5.422;2023-06-10T12:23:10;101613.56;;;32.09;25.76
79617;BME280;69097;52.132;5.422;2023-06-10T12:25:49;101613.09;;;32.05;25.46
79617;BME280;69097;52.132;5.422;2023-06-10T12:28:21;101611.91;;;32.01;25.23
79617;BME280;69097;52.132;5.422;2023-06-10T12:30:49;101605.19;;;32.06;25.76
79617;BME280;69097;52.132;5.422;2023-06-10T12:33:23;101612.41;;;32.12;25.76
79617;BME280;69097;52.132;5.422;2023-06-10T12:35:52;101619.97;;;32.15;25.26
79617;BME280;69097;52.132;5.422;2023-06-10T12:38:23;101607.00;;;32.16;24.66
79617;BME280;69097;52.132;5.422;2023-06-10T12:40:50;101616.28;;;32.15;25.52
79617;BME280;69097;52.132;5.422;2023-06-10T12:43:20;101605.81;;;32.12;24.90
79617;BME280;69097;52.132;5.422;2023-06-10T12:45:52;101608.38;;;32.15;24.82
79617;BME280;69097;52.132;5.422;2023-06-10T12:48:22;101608.50;;;32.30;25.81
79617;BME280;69097;52.132;5.422;2023-06-10T12:50:56;101610.75;;;32.45;25.34
79617;BME280;69097;52.132;5.422;2023-06-10T12:53:24;101606.97;;;32.50;24.83
79617;BME280;69097;52.132;5.422;2023-06-10T12:55:51;101607.00;;;32.58;24.19
79617;BME280;69097;52.132;5.422;2023-06-10T12:58:19;101602.91;;;32.53;23.40
79617;BME280;69097;52.132;5.422;2023-06-10T13:00:46;101606.97;;;32.50;24.43
79617;BME280;69097;52.132;5.422;2023-06-10T13:03:15;101613.03;;;32.60;24.96
79617;BME280;69097;52.132;5.422;2023-06-10T13:05:48;101601.25;;;32.65;24.96
79617;BME280;69097;52.132;5.422;2023-06-10T13:08:20;101605.50;;;32.64;26.43
79617;BME280;69097;52.132;5.422;2023-06-10T13:10:48;101595.22;;;32.63;23.47
79617;BME280;69097;52.132;5.422;2023-06-10T13:13:18;101597.66;;;32.52;24.42
79617;BME280;69097;52.132;5.422;2023-06-10T13:15:47;101594.91;;;32.46;24.33
79617;BME280;69097;52.132;5.422;2023-06-10T13:18:18;101594.53;;;32.50;25.00
79617;BME280;69097;52.132;5.422;2023-06-10T13:20:51;101586.44;;;32.56;24.36
79617;BME280;69097;52.132;5.422;2023-06-10T13:23:18;101589.19;;;32.61;25.13
79617;BME280;69097;52.132;5.422;2023-06-10T13:25:49;101585.16;;;32.64;25.44
79617;BME280;69097;52.132;5.422;2023-06-10T13:28:23;101589.22;;;32.69;24.65
79617;BME280;69097;52.132;5.422;2023-06-10T13:30:50;101579.03;;;32.75;25.00
79617;BME280;69097;52.132;5.422;2023-06-10T13:33:19;101574.34;;;32.72;24.37
79617;BME280;69097;52.132;5.422;2023-06-10T13:35:46;101576.13;;;32.75;25.75
79617;BME280;69097;52.132;5.422;2023-06-10T13:38:16;101577.91;;;32.86;24.82
79617;BME280;69097;52.132;5.422;2023-06-10T13:40:48;101580.06;;;32.85;24.12